Latest Weather Observations for Batchelor

IDD60901

Issued at 7:31 am CST Thursday 19 January 2017 (issued every 10 minutes, with the page automatically refreshed every 10 minutes)

About weather observations | Map of Darwin area stations | Latest observations for Darwin area | Other Formats
Station Details ID: 014272 Name: BATCHELOR AIRPORT Lat: -13.05 Lon: 131.03 Height: 104.0 m
Data from the previous 72 hours. | See also: Recent months at Batchelor
Date/Time
CST
Temp
°C
App
Temp
°C
Dew
Point
°C
Rel
Hum
%
Delta-T
°C
Wind Press
QNH
hPa
Press
MSL
hPa
Rain since
9am
mm
Dir  Spd
km/h
Gust
km/h
Spd
kts
Gust
kts
19/07:00am 24.1 28.3 23.4 96 0.5 WNW 7 13 4 7 1010.5 1009.8 16.6
19/06:30am 24.1 27.4 23.2 95 0.6 WNW 11 17 6 9 1010.1 1009.4 16.6
19/06:00am 24.1 27.9 23.4 96 0.5 WNW 9 15 5 8 1009.7 1009.0 16.6
19/05:30am 24.1 28.0 23.6 97 0.3 WNW 9 11 5 6 1009.6 1008.9 16.6
19/05:00am 24.2 28.7 23.9 98 0.2 WNW 7 11 4 6 1009.4 1008.7 16.6
19/04:30am 24.0 28.9 23.7 98 0.2 W 4 6 2 3 1009.4 1008.7 16.6
19/04:00am 23.9 28.8 23.6 98 0.2 W 4 6 2 3 1009.5 1008.8 16.6
19/03:30am 24.0 28.8 23.5 97 0.3 W 4 6 2 3 1009.7 1009.0 16.6
19/03:00am 24.0 29.6 23.5 97 0.3 CALM 0 0 0 0 1009.9 1009.2 16.6
19/02:30am 24.1 29.7 23.6 97 0.3 CALM 0 0 0 0 1010.2 1009.5 16.6
19/02:00am 24.1 29.7 23.6 97 0.3 CALM 0 0 0 0 1010.7 1010.0 16.4
19/01:30am 24.1 29.7 23.6 97 0.3 CALM 0 0 0 0 1011.0 1010.3 16.2
19/01:00am 24.0 29.6 23.5 97 0.3 CALM 0 0 0 0 1011.3 1010.6 16.2
19/12:30am 24.1 29.0 23.6 97 0.3 W 4 4 2 2 1011.7 1011.0 16.2
19/12:00am 24.0 29.2 23.5 97 0.3 W 2 4 1 2 1012.0 1011.3 16.2
 
Date/Time
CST
Temp
°C
App
Temp
°C
Dew
Point
°C
Rel
Hum
%
Delta-T
°C
Wind Press
QNH
hPa
Press
MSL
hPa
Rain since
9am
mm
Dir  Spd
km/h
Gust
km/h
Spd
kts
Gust
kts
18/11:30pm 24.0 29.6 23.5 97 0.3 CALM 0 2 0 1 1012.2 1011.5 16.2
18/11:00pm 23.9 28.9 23.2 96 0.5 W 2 4 1 2 1012.5 1011.8 16.2
18/10:30pm 24.1 29.3 23.6 97 0.3 W 2 2 1 1 1012.2 1011.5 16.2
18/10:00pm 23.9 29.3 23.2 96 0.5 CALM 0 0 0 0 1011.9 1011.2 16.0
18/09:30pm 23.7 28.9 22.9 95 0.5 CALM 0 0 0 0 1011.6 1010.9 16.0
18/09:00pm 23.6 28.5 22.4 93 0.8 CALM 0 0 0 0 1011.7 1011.0 16.0
18/08:30pm 23.6 27.4 22.4 93 0.8 W 6 11 3 6 1011.4 1010.7 15.6
18/08:00pm 23.5 26.3 22.3 93 0.8 NW 11 17 6 9 1011.2 1010.5 15.6
18/07:30pm 24.0 25.8 22.6 92 0.9 WNW 17 30 9 16 1011.0 1010.3 15.6
18/07:00pm 24.3 29.4 23.4 95 0.6 N 2 6 1 3 1010.5 1009.8 15.2
18/06:30pm 24.5 28.7 23.5 94 0.7 NW 7 11 4 6 1010.1 1009.4 13.2
18/06:00pm 24.4 27.3 23.2 93 0.8 NW 13 20 7 11 1009.6 1008.9 12.4
18/05:30pm 26.3 32.0 23.8 86 1.7 CALM 0 0 0 0 1009.1 1008.4 8.4
18/05:00pm 26.1 31.3 23.6 86 1.7 WSW 2 6 1 3 1008.5 1007.8 8.4
18/04:30pm 26.6 31.1 23.9 85 1.9 WSW 7 13 4 7 1008.8 1008.1 8.4
18/04:00pm 27.7 33.6 24.1 81 2.5 CALM 0 4 0 2 1008.7 1008.0 8.4
18/03:30pm 27.7 33.0 24.3 82 2.4 NW 4 6 2 3 1008.3 1007.6 8.4
18/03:00pm 27.4 32.7 24.3 83 2.2 W 4 7 2 4 1008.1 1007.4 8.4
18/02:30pm 27.1 31.9 24.4 85 1.9 WNW 7 13 4 7 1008.0 1007.3 8.4
18/02:00pm 25.6 28.7 23.5 88 1.4 W 13 19 7 10 1008.5 1007.8 8.2
18/01:30pm 26.5 31.4 24.3 88 1.5 WNW 6 9 3 5 1009.3 1008.6 5.6
18/01:19pm 26.6 28.9 22.7 79 2.6 WNW 15 24 8 13 1009.4 1008.7 3.8
18/01:00pm 31.6 35.3 23.2 61 5.8 N 9 13 5 7 1008.6 1007.9 0.0
18/12:30pm 31.0 33.2 21.8 58 6.2 N 13 22 7 12 1009.2 1008.5 0.0
18/12:00pm 32.6 36.4 23.5 58 6.3 NW 9 19 5 10 1009.4 1008.7 0.0
18/11:30am 32.0 35.5 23.5 60 5.9 NNW 11 19 6 10 1010.0 1009.3 0.0
18/11:00am 31.5 35.6 23.9 64 5.3 NW 9 17 5 9 1010.2 1009.5 0.0
18/10:30am 31.1 35.2 23.0 62 5.6 NW 6 15 3 8 1010.5 1009.8 0.0
18/10:00am 30.4 34.1 23.3 66 4.9 NNW 9 17 5 9 1011.1 1010.4 0.0
18/09:30am 29.6 33.7 24.0 72 3.9 NNW 9 13 5 7 1011.2 1010.5 0.0
18/09:00am 28.5 32.7 24.1 77 3.1 NNW 9 15 5 8 1011.4 1010.7 0.0
18/08:30am 28.4 33.2 24.4 79 2.8 NW 7 13 4 7 1011.2 1010.5 0.0
18/08:00am 27.2 32.8 24.3 84 2.0 N 2 4 1 2 1011.0 1010.3 0.0
18/07:30am 26.1 32.1 24.3 90 1.2 CALM 0 0 0 0 1011.0 1010.3 0.0
18/07:00am 24.3 29.8 23.4 95 0.6 CALM 0 0 0 0 1010.6 1009.9 0.0
18/06:30am 24.1 29.0 23.1 94 0.7 WNW 2 2 1 1 1010.1 1009.4 0.0
18/06:00am 24.2 29.5 23.0 93 0.8 CALM 0 0 0 0 1009.5 1008.8 0.0
18/05:30am 23.9 29.0 22.7 93 0.8 CALM 0 0 0 0 1009.0 1008.3 0.0
18/05:00am 24.1 29.1 22.5 91 1.1 CALM 0 0 0 0 1008.8 1008.1 0.0
18/04:30am 24.5 29.4 22.4 88 1.4 CALM 0 2 0 1 1008.5 1007.8 0.0
18/04:00am 24.5 28.3 22.4 88 1.4 WNW 6 6 3 3 1008.5 1007.8 0.0
18/03:30am 24.8 29.4 22.5 87 1.6 WNW 2 2 1 1 1008.5 1007.8 0.0
18/03:00am 24.9 29.1 22.4 86 1.7 W 4 6 2 3 1008.6 1007.9 0.0
18/02:30am 25.1 29.3 22.4 85 1.8 WNW 4 6 2 3 1008.7 1008.0 0.0
18/02:00am 25.2 29.0 22.7 86 1.7 WNW 7 11 4 6 1009.1 1008.4 0.0
18/01:30am 25.4 29.4 22.7 85 1.8 W 6 9 3 5 1009.4 1008.7 0.0
18/01:00am 25.5 29.9 22.8 85 1.8 NW 4 6 2 3 1009.8 1009.1 0.0
18/12:30am 25.5 29.7 22.4 83 2.1 NW 4 6 2 3 1010.1 1009.4 0.0
18/12:00am 25.8 30.8 22.5 82 2.2 CALM 0 2 0 1 1010.1 1009.4 0.0
 
Date/Time
CST
Temp
°C
App
Temp
°C
Dew
Point
°C
Rel
Hum
%
Delta-T
°C
Wind Press
QNH
hPa
Press
MSL
hPa
Rain since
9am
mm
Dir  Spd
km/h
Gust
km/h
Spd
kts
Gust
kts
17/11:30pm 25.9 30.4 22.2 80 2.5 NW 2 4 1 2 1010.3 1009.6 0.0
17/11:00pm 26.4 30.0 22.0 77 3.0 NW 6 9 3 5 1010.4 1009.7 0.0
17/10:30pm 26.9 30.0 22.9 79 2.7 NNW 11 19 6 10 1010.3 1009.6 0.0
17/10:00pm 27.1 31.2 22.9 78 2.9 NW 6 13 3 7 1010.1 1009.4 0.0
17/09:30pm 27.3 31.1 22.7 76 3.1 NW 7 13 4 7 1010.1 1009.4 0.0
17/09:00pm 27.5 31.0 22.2 73 3.6 NW 7 11 4 6 1010.1 1009.4 0.0
17/08:30pm 27.4 30.1 20.7 67 4.4 NW 7 9 4 5 1009.7 1009.0 0.0
17/08:00pm 28.0 30.6 20.0 61 5.3 NW 6 9 3 5 1009.3 1008.6 0.0
17/07:30pm 28.7 30.6 18.5 54 6.6 NW 6 9 3 5 1008.5 1007.8 0.0
17/07:00pm 30.0 31.1 18.1 49 7.6 WNW 9 13 5 7 1007.9 1007.2 0.0
17/06:30pm 31.2 31.6 18.2 46 8.4 NW 13 20 7 11 1007.8 1007.1 0.0
17/06:00pm 31.3 31.9 18.6 46 8.3 NW 13 20 7 11 1007.3 1006.6 0.0
17/05:30pm 31.8 33.8 20.7 51 7.5 WNW 11 22 6 12 1006.5 1005.7 0.0
17/05:00pm 30.7 34.3 22.3 61 5.7 W 7 11 4 6 1006.6 1005.8 0.0
17/04:30pm 28.9 32.6 22.2 67 4.6 NW 6 9 3 5 1006.6 1005.8 0.0
17/04:00pm 29.0 32.0 22.0 66 4.7 W 9 17 5 9 1006.4 1005.6 0.0
17/03:30pm 30.5 33.4 21.0 57 6.4 W 7 15 4 8 1006.5 1005.7 0.0
17/03:00pm 32.0 34.5 21.8 54 6.9 NNW 11 19 6 10 1006.7 1005.9 0.0
17/02:30pm 32.9 35.8 22.4 54 7.2 NNW 11 15 6 8 1007.0 1006.2 0.0
17/02:00pm 32.4 35.3 21.0 51 7.7 W 7 17 4 9 1007.5 1006.8 0.0
17/01:30pm 32.7 35.3 21.2 50 7.8 NW 9 17 5 9 1007.8 1007.1 0.0
17/01:00pm 32.3 35.9 22.4 56 6.8 NW 7 17 4 9 1007.9 1007.2 0.0
17/12:30pm 32.2 35.7 22.9 58 6.4 NW 9 19 5 10 1008.2 1007.5 0.0
17/12:00pm 31.9 35.2 22.6 58 6.4 WNW 9 15 5 8 1008.7 1008.0 0.0
17/11:30am 31.1 34.5 22.7 61 5.8 WNW 9 17 5 9 1009.1 1008.4 0.0
17/11:00am 30.4 33.8 23.3 66 4.9 NW 11 17 6 9 1009.4 1008.7 0.0
17/10:30am 29.9 33.4 23.6 69 4.4 NNW 11 19 6 10 1009.7 1009.0 0.0
17/10:00am 29.0 33.0 23.7 73 3.7 NW 9 15 5 8 1009.9 1009.2 0.0
17/09:30am 28.5 32.7 23.4 74 3.5 NW 7 11 4 6 1009.6 1008.9 0.0
17/09:00am 27.8 32.2 23.4 77 3.0 N 6 9 3 5 1009.5 1008.8 0.0
17/08:30am 26.6 31.2 23.1 81 2.4 NNE 4 6 2 3 1009.4 1008.7 0.0
17/08:00am 25.4 29.7 22.7 85 1.8 NE 4 6 2 3 1009.4 1008.7 0.0
17/07:30am 24.7 30.0 23.1 91 1.1 CALM 0 0 0 0 1009.0 1008.3 0.0
17/07:00am 23.8 28.9 22.6 93 0.8 CALM 0 0 0 0 1008.5 1007.8 0.0
17/06:30am 23.9 28.1 22.5 92 0.9 SW 4 9 2 5 1008.3 1007.6 0.0
17/06:00am 23.6 28.0 22.8 95 0.5 SSW 4 6 2 3 1008.3 1007.6 0.0
17/05:30am 23.5 28.4 22.3 93 0.8 CALM 0 0 0 0 1008.1 1007.4 0.0
17/05:00am 23.6 28.4 22.2 92 0.9 CALM 0 0 0 0 1007.7 1007.0 0.0
17/04:30am 23.6 28.5 22.4 93 0.8 CALM 0 0 0 0 1007.5 1006.8 0.0
17/04:00am 23.6 27.7 22.2 92 0.9 NNW 4 6 2 3 1007.2 1006.5 0.0
17/03:30am 23.6 27.8 22.4 93 0.8 NNW 4 4 2 2 1007.2 1006.5 0.0
17/03:00am 23.7 28.2 22.3 92 0.9 NNW 2 4 1 2 1007.2 1006.5 0.0
17/02:30am 23.9 29.0 22.7 93 0.8 CALM 0 0 0 0 1007.5 1006.8 0.0
17/02:00am 23.9 29.0 22.7 93 0.8 CALM 0 0 0 0 1007.6 1006.9 0.0
17/01:30am 24.0 29.3 23.0 94 0.7 CALM 0 0 0 0 1007.9 1007.2 0.0
17/01:00am 24.0 29.3 23.0 94 0.7 CALM 0 0 0 0 1008.1 1007.4 0.0
17/12:30am 24.0 29.2 22.8 93 0.8 CALM 0 0 0 0 1008.4 1007.7 0.0
17/12:00am 24.2 29.4 22.8 92 0.9 CALM 0 0 0 0 1008.5 1007.8 0.0
 
Date/Time
CST
Temp
°C
App
Temp
°C
Dew
Point
°C
Rel
Hum
%
Delta-T
°C
Wind Press
QNH
hPa
Press
MSL
hPa
Rain since
9am
mm
Dir  Spd
km/h
Gust
km/h
Spd
kts
Gust
kts
16/11:30pm 24.2 29.4 22.8 92 0.9 CALM 0 0 0 0 1008.5 1007.8 0.0
16/11:00pm 24.0 28.2 22.4 91 1.1 NNW 4 4 2 2 1008.6 1007.9 0.0
16/10:30pm 24.0 29.1 22.6 92 0.9 CALM 0 0 0 0 1008.5 1007.8 0.0
16/10:00pm 24.1 28.3 22.4 90 1.1 NNW 4 6 2 3 1008.4 1007.7 0.0
16/09:30pm 24.3 29.0 22.7 91 1.1 NNW 2 2 1 1 1008.3 1007.6 0.0
16/09:00pm 24.4 29.0 22.5 89 1.3 NNW 2 4 1 2 1008.1 1007.4 0.0
16/08:30pm 24.4 29.3 22.3 88 1.4 CALM 0 0 0 0 1007.8 1007.1 0.0
16/08:00pm 24.5 29.3 22.2 87 1.5 CALM 0 0 0 0 1007.5 1006.8 0.0
16/07:30pm 24.6 29.1 22.3 87 1.5 NNW 2 4 1 2 1007.6 1006.9 0.0
16/07:00pm 24.8 29.3 22.3 86 1.7 S 2 6 1 3 1007.4 1006.7 0.0
16/06:30pm 25.0 29.3 21.9 83 2.1 S 2 4 1 2 1007.2 1006.5 0.0
16/06:00pm 25.0 28.8 21.7 82 2.2 SSE 4 7 2 4 1006.8 1006.0 0.0
16/05:30pm 25.2 28.6 21.7 81 2.3 SSW 6 9 3 5 1006.7 1005.9 0.0
16/05:00pm 25.5 28.9 22.0 81 2.3 SW 7 11 4 6 1007.4 1006.7 0.0
16/04:30pm 27.0 29.7 22.8 78 2.9 SW 13 20 7 11 1007.3 1006.6 0.0
16/04:00pm 27.9 30.5 22.6 73 3.6 WSW 13 19 7 10 1007.1 1006.4 0.0
16/03:30pm 27.9 30.5 21.9 70 4.1 WSW 11 24 6 13 1007.3 1006.6 0.0
16/03:00pm 28.1 30.9 22.3 70 3.9 WSW 11 20 6 11 1007.1 1006.4 0.0
16/02:30pm 28.0 30.2 21.8 69 4.2 WSW 13 20 7 11 1006.8 1006.0 0.0
16/02:00pm 28.5 30.6 22.5 70 4.1 W 15 24 8 13 1007.1 1006.4 0.0
16/01:30pm 29.0 31.6 22.7 69 4.3 WNW 13 22 7 12 1007.6 1006.9 0.0
16/01:00pm 29.3 32.0 22.8 68 4.4 NW 13 19 7 10 1007.9 1007.2 0.0
16/12:30pm 30.1 32.5 23.0 65 4.9 NW 15 22 8 12 1008.0 1007.3 0.0
16/12:00pm 30.5 33.2 22.9 64 5.2 WNW 13 19 7 10 1008.5 1007.8 0.0
16/11:30am 30.0 33.7 23.2 67 4.7 W 9 15 5 8 1009.0 1008.3 0.0
16/11:00am 29.5 33.8 23.7 71 4.0 W 7 15 4 8 1009.5 1008.8 0.0
16/10:30am 29.1 32.5 23.3 71 4.0 W 11 20 6 11 1009.6 1008.9 0.0
16/10:00am 29.0 32.4 23.4 72 3.9 W 11 17 6 9 1009.5 1008.8 0.0
16/09:30am 28.6 33.3 25.0 81 2.5 WNW 9 19 5 10 1009.1 1008.4 0.0
16/09:00am 27.6 32.5 24.6 84 2.1 WNW 7 13 4 7 1009.0 1008.3 -
16/08:30am 26.9 32.2 24.9 89 1.4 W 6 7 3 4 1008.9 1008.2 -
16/08:00am 26.1 31.9 25.1 94 0.7 W 4 6 2 3 1008.7 1008.0 -

Latest Capital City Observations: Canberra | Sydney | Melbourne | Brisbane | Adelaide | Perth | Hobart | Darwin

Other Formats:

Comma delimited format used in spreadsheet applications
http://www.bom.gov.au/fwo/IDD60901/IDD60901.94125.axf

JavaScript Object Notation format (JSON) in row-major order
http://www.bom.gov.au/fwo/IDD60901/IDD60901.94125.json